Terminal Aerodrome Forecast
Issued by NWS Bismarck, ND

Home | Current Version | Previous Version | Graphics & Text | Print | Product List | Glossary On
Versions: 1 2 3 4 5 6 7 8 9 10 11 12 13 14 15 16 17 18 19 20 21 22
767
FTUS43 KBIS 171720
TAFBIS
TAF
KBIS 171720Z 1718/1818 15019G26KT P6SM SCT120
     FM180000 09010KT P6SM VCSH OVC090
     FM180400 06006KT 2SM -SN OVC050
     FM180900 35005KT 2SM -SN OVC015
     FM181200 34006KT P6SM OVC015=

USA.gov is the U.S. government's official web portal to all federal, state and local government web resources and services.